Time;durP1;ratioP1;P1;durP2;ratioP2;P2;SDS_P1;SDS_P2;PMS_P1;PMS_P2;Temp;Humidity;BMP_temperature;BMP_pressure;BME280_temperature;BME280_humidity;BME280_pressure;Samples;Min_cycle;Max_cycle;Signal;HPM_P1;HPM_P2
2023/10/04 00:02:13;;;;;;;10.80;10.30;;;;;;;;;;5111831;27;20463;-70
2023/10/04 00:04:43;;;;;;;11.15;10.65;;;;;;;;;;5098879;28;20018;-70
2023/10/04 00:07:08;;;;;;;11.13;10.63;;;;;;;;;;5111334;27;20123;-70
2023/10/04 00:09:34;;;;;;;11.00;10.50;;;;;;;;;;5110176;28;20126;-70
2023/10/04 00:11:59;;;;;;;11.00;10.50;;;;;;;;;;5107802;27;20031;-71
2023/10/04 00:14:25;;;;;;;10.55;10.05;;;;;;;;;;5112655;27;20088;-69
2023/10/04 00:16:51;;;;;;;11.00;10.50;;;;;;;;;;5113922;27;20020;-69
2023/10/04 00:19:17;;;;;;;11.40;10.90;;;;;;;;;;5111520;27;20020;-69
2023/10/04 00:21:42;;;;;;;11.07;10.57;;;;;;;;;;5112329;28;20055;-69
2023/10/04 00:24:11;;;;;;;10.80;10.30;;;;;;;;;;5108482;28;20039;-70
2023/10/04 00:26:36;;;;;;;11.48;10.98;;;;;;;;;;5097572;28;20572;-69
2023/10/04 00:29:04;;;;;;;11.00;10.50;;;;;;;;;;5111995;27;20043;-71
2023/10/04 00:31:31;;;;;;;10.98;10.48;;;;;;;;;;5113225;27;20028;-70
2023/10/04 00:33:56;;;;;;;11.50;11.00;;;;;;;;;;5108383;27;20198;-71
2023/10/04 00:36:22;;;;;;;11.15;10.65;;;;;;;;;;5108662;28;20031;-69
2023/10/04 00:38:48;;;;;;;11.93;11.32;;;;;;;;;;5106843;27;20025;-69
2023/10/04 00:41:15;;;;;;;11.32;10.82;;;;;;;;;;5098731;27;20023;-69
2023/10/04 00:43:49;;;;;;;11.20;10.70;;;;;;;;;;5113501;27;20024;-71
2023/10/04 00:46:15;;;;;;;10.80;10.30;;;;;;;;;;5109391;28;20019;-70
2023/10/04 00:48:40;;;;;;;11.45;10.95;;;;;;;;;;5094773;28;20440;-68
2023/10/04 00:51:06;;;;;;;10.80;10.30;;;;;;;;;;5092938;28;20107;-70
2023/10/04 00:53:33;;;;;;;10.88;10.38;;;;;;;;;;5109980;27;20019;-69
2023/10/04 00:55:59;;;;;;;10.80;10.30;;;;;;;;;;5090456;28;20039;-70
2023/10/04 00:58:25;;;;;;;10.65;10.15;;;;;;;;;;5111366;27;20019;-69
2023/10/04 01:00:50;;;;;;;11.10;10.60;;;;;;;;;;5087826;28;20024;-69
2023/10/04 01:03:20;;;;;;;11.20;10.70;;;;;;;;;;5111225;27;20500;-70
2023/10/04 01:05:50;;;;;;;12.23;11.63;;;;;;;;;;5098857;28;20047;-70
2023/10/04 01:08:17;;;;;;;10.80;10.30;;;;;;;;;;5090392;28;20011;-69
2023/10/04 01:10:46;;;;;;;10.65;10.15;;;;;;;;;;5086728;28;20447;-70
2023/10/04 01:13:15;;;;;;;11.27;10.77;;;;;;;;;;5090961;28;20404;-70
2023/10/04 01:15:40;;;;;;;10.93;10.43;;;;;;;;;;5090703;28;20074;-69
2023/10/04 01:18:09;;;;;;;10.80;10.30;;;;;;;;;;5089338;28;20042;-70
2023/10/04 01:20:37;;;;;;;11.07;10.57;;;;;;;;;;5086998;28;20099;-71
2023/10/04 01:23:05;;;;;;;10.40;9.90;;;;;;;;;;5067445;28;20021;-70
2023/10/04 01:25:32;;;;;;;11.60;11.00;;;;;;;;;;5064485;28;20111;-70
2023/10/04 01:27:59;;;;;;;10.70;10.20;;;;;;;;;;5091409;28;20096;-70
2023/10/04 01:30:24;;;;;;;11.45;10.95;;;;;;;;;;5089876;28;20066;-69
2023/10/04 01:32:50;;;;;;;11.00;10.50;;;;;;;;;;5091259;28;20024;-69
2023/10/04 01:35:23;;;;;;;11.10;10.60;;;;;;;;;;5088845;28;20019;-70
2023/10/04 01:37:49;;;;;;;11.02;10.52;;;;;;;;;;5074491;28;20016;-69
2023/10/04 01:40:18;;;;;;;10.75;10.25;;;;;;;;;;5071643;28;20673;-68
2023/10/04 01:42:45;;;;;;;10.88;10.38;;;;;;;;;;5069553;28;20020;-70
2023/10/04 01:45:11;;;;;;;10.70;10.20;;;;;;;;;;5089908;28;20704;-69
2023/10/04 01:47:37;;;;;;;10.68;10.18;;;;;;;;;;5091392;28;20132;-71
2023/10/04 01:50:05;;;;;;;10.57;10.07;;;;;;;;;;5067874;28;20024;-69
2023/10/04 01:52:30;;;;;;;10.65;10.15;;;;;;;;;;5071806;28;20024;-68
2023/10/04 01:54:56;;;;;;;10.88;10.38;;;;;;;;;;5071370;28;20031;-69
2023/10/04 01:57:21;;;;;;;11.00;10.50;;;;;;;;;;5094071;28;20028;-69
2023/10/04 01:59:46;;;;;;;11.23;10.73;;;;;;;;;;5072642;28;20042;-69
2023/10/04 02:02:12;;;;;;;11.05;10.55;;;;;;;;;;5089507;28;20044;-68
2023/10/04 02:04:37;;;;;;;11.00;10.50;;;;;;;;;;5090947;28;20020;-69
2023/10/04 02:07:03;;;;;;;10.95;10.45;;;;;;;;;;5100176;28;20119;-69
2023/10/04 02:09:28;;;;;;;10.93;10.43;;;;;;;;;;5105796;28;20022;-69
2023/10/04 02:11:54;;;;;;;11.00;10.50;;;;;;;;;;5090139;28;20102;-69
2023/10/04 02:14:19;;;;;;;10.90;10.40;;;;;;;;;;5105215;28;20028;-68
2023/10/04 02:16:49;;;;;;;10.82;10.32;;;;;;;;;;5107892;28;20066;-71
2023/10/04 02:19:14;;;;;;;11.18;10.68;;;;;;;;;;5097251;28;20536;-71
2023/10/04 02:21:39;;;;;;;10.85;10.35;;;;;;;;;;5111129;28;20098;-68
2023/10/04 02:24:08;;;;;;;11.15;10.65;;;;;;;;;;5108079;28;20076;-70
2023/10/04 02:26:35;;;;;;;10.98;10.48;;;;;;;;;;5110046;27;20020;-70
2023/10/04 02:29:04;;;;;;;10.80;10.30;;;;;;;;;;5089317;27;20605;-70
2023/10/04 02:31:33;;;;;;;11.05;10.55;;;;;;;;;;5111793;28;20023;-70
2023/10/04 02:33:58;;;;;;;10.70;10.20;;;;;;;;;;5110549;27;20047;-71
2023/10/04 02:36:25;;;;;;;10.98;10.48;;;;;;;;;;5106776;27;20072;-71
2023/10/04 02:38:51;;;;;;;11.00;10.50;;;;;;;;;;5108480;27;20012;-71
2023/10/04 02:41:17;;;;;;;11.90;11.30;;;;;;;;;;5110495;28;23207;-70
2023/10/04 02:43:42;;;;;;;11.30;10.80;;;;;;;;;;5098189;28;20483;-69
2023/10/04 02:46:10;;;;;;;10.80;10.30;;;;;;;;;;5119070;27;20024;-70
2023/10/04 02:48:35;;;;;;;10.85;10.35;;;;;;;;;;5093243;28;20020;-70
2023/10/04 02:51:01;;;;;;;11.50;10.95;;;;;;;;;;5116696;27;20023;-71
2023/10/04 02:53:27;;;;;;;11.23;10.73;;;;;;;;;;5112108;27;20028;-70
2023/10/04 02:55:57;;;;;;;10.68;10.18;;;;;;;;;;5108946;28;20051;-71
2023/10/04 02:58:23;;;;;;;11.00;10.50;;;;;;;;;;5106086;27;20028;-68
2023/10/04 03:00:50;;;;;;;11.40;10.85;;;;;;;;;;5107702;28;20377;-71
2023/10/04 03:03:19;;;;;;;10.75;10.25;;;;;;;;;;5116806;27;20380;-70
2023/10/04 03:05:45;;;;;;;12.43;11.82;;;;;;;;;;5103061;28;20530;-70
2023/10/04 03:08:12;;;;;;;10.82;10.32;;;;;;;;;;5107021;27;20116;-70
2023/10/04 03:10:37;;;;;;;10.90;10.40;;;;;;;;;;5110448;28;20036;-70
2023/10/04 03:13:07;;;;;;;10.25;9.77;;;;;;;;;;5110451;27;20079;-72
2023/10/04 03:15:32;;;;;;;11.48;10.90;;;;;;;;;;5088988;28;20027;-71
2023/10/04 03:17:59;;;;;;;10.60;10.10;;;;;;;;;;5090308;28;20069;-70
2023/10/04 03:20:25;;;;;;;10.90;10.40;;;;;;;;;;5095438;27;20028;-72
2023/10/04 03:22:57;;;;;;;11.68;11.07;;;;;;;;;;5106791;27;20351;-69
2023/10/04 03:25:24;;;;;;;11.20;10.70;;;;;;;;;;5107301;28;20023;-70
2023/10/04 03:27:50;;;;;;;10.77;10.27;;;;;;;;;;5094050;28;20064;-70
2023/10/04 03:30:16;;;;;;;10.77;10.27;;;;;;;;;;5110046;28;20028;-70
2023/10/04 03:32:45;;;;;;;10.70;10.20;;;;;;;;;;5110258;28;20035;-69
2023/10/04 03:35:14;;;;;;;11.02;10.52;;;;;;;;;;5097973;28;20024;-71
2023/10/04 03:37:48;;;;;;;10.68;10.18;;;;;;;;;;5093822;28;20020;-72
2023/10/04 03:40:15;;;;;;;11.33;10.80;;;;;;;;;;5085137;28;20114;-70
2023/10/04 03:42:44;;;;;;;10.40;9.90;;;;;;;;;;5091516;28;20024;-69
2023/10/04 03:45:11;;;;;;;10.57;10.07;;;;;;;;;;5110372;28;20026;-69
2023/10/04 03:47:39;;;;;;;10.80;10.30;;;;;;;;;;5091258;28;20031;-69
2023/10/04 03:50:08;;;;;;;10.63;10.13;;;;;;;;;;5106680;27;20367;-69
2023/10/04 03:52:34;;;;;;;10.93;10.43;;;;;;;;;;5106620;27;20023;-71
2023/10/04 03:55:00;;;;;;;10.70;10.20;;;;;;;;;;5108534;27;20040;-69
2023/10/04 03:57:25;;;;;;;11.05;10.55;;;;;;;;;;5094142;28;20011;-69
2023/10/04 03:59:58;;;;;;;10.70;10.20;;;;;;;;;;5108558;27;20027;-71
2023/10/04 04:02:23;;;;;;;10.85;10.35;;;;;;;;;;5092156;28;20081;-70
2023/10/04 04:04:48;;;;;;;10.80;10.30;;;;;;;;;;5096888;28;20051;-71
2023/10/04 04:07:14;;;;;;;11.40;10.88;;;;;;;;;;5103939;28;20043;-70
2023/10/04 04:09:40;;;;;;;11.73;11.13;;;;;;;;;;5090444;28;20072;-70
2023/10/04 04:12:05;;;;;;;11.55;11.00;;;;;;;;;;5109743;27;20074;-69
2023/10/04 04:14:31;;;;;;;10.88;10.38;;;;;;;;;;5108343;28;20015;-70
2023/10/04 04:16:56;;;;;;;10.68;10.18;;;;;;;;;;5094184;28;20020;-70
2023/10/04 04:19:22;;;;;;;11.00;10.50;;;;;;;;;;5084704;28;20122;-70
2023/10/04 04:21:49;;;;;;;11.57;10.98;;;;;;;;;;5107647;27;20012;-66
2023/10/04 04:24:14;;;;;;;10.70;10.20;;;;;;;;;;5099209;27;20107;-67
2023/10/04 04:26:41;;;;;;;10.65;10.15;;;;;;;;;;5109562;28;20103;-66
2023/10/04 04:29:09;;;;;;;11.75;11.15;;;;;;;;;;5109200;27;20106;-66
2023/10/04 04:31:35;;;;;;;10.45;9.95;;;;;;;;;;5091985;28;20024;-66
2023/10/04 04:34:01;;;;;;;11.13;10.63;;;;;;;;;;5110018;27;20034;-67
2023/10/04 04:36:31;;;;;;;11.82;11.23;;;;;;;;;;5104456;27;20038;-67
2023/10/04 04:38:56;;;;;;;11.30;10.80;;;;;;;;;;5106751;27;20047;-66
2023/10/04 04:41:25;;;;;;;11.07;10.57;;;;;;;;;;5104681;27;20165;-67
2023/10/04 04:43:51;;;;;;;11.07;10.57;;;;;;;;;;5102179;28;20024;-67
2023/10/04 04:46:18;;;;;;;10.70;10.20;;;;;;;;;;5105182;28;20069;-67
2023/10/04 04:48:43;;;;;;;11.57;11.07;;;;;;;;;;5099081;28;20717;-66
2023/10/04 04:51:12;;;;;;;11.52;11.02;;;;;;;;;;5103745;27;20051;-66
2023/10/04 04:53:41;;;;;;;10.85;10.35;;;;;;;;;;5107943;27;20023;-66
2023/10/04 04:56:16;;;;;;;12.10;11.50;;;;;;;;;;5105296;27;20032;-66
2023/10/04 04:58:42;;;;;;;11.32;10.82;;;;;;;;;;5108367;27;20020;-66
2023/10/04 05:01:13;;;;;;;11.32;10.82;;;;;;;;;;5101167;27;20023;-67
2023/10/04 05:03:44;;;;;;;11.55;11.05;;;;;;;;;;5107641;27;20530;-65
2023/10/04 05:06:21;;;;;;;11.50;11.00;;;;;;;;;;5107245;28;20068;-65
2023/10/04 05:08:46;;;;;;;11.40;10.90;;;;;;;;;;5102019;28;20012;-65
2023/10/04 05:11:12;;;;;;;11.32;10.82;;;;;;;;;;5091166;27;20530;-67
2023/10/04 05:13:37;;;;;;;11.43;10.93;;;;;;;;;;5104951;27;20042;-67
2023/10/04 05:16:04;;;;;;;11.40;10.90;;;;;;;;;;5100331;27;20019;-64
2023/10/04 05:18:30;;;;;;;11.80;11.30;;;;;;;;;;5106416;28;20090;-67
2023/10/04 05:20:55;;;;;;;11.45;10.95;;;;;;;;;;5104552;28;20495;-67
2023/10/04 05:23:21;;;;;;;12.00;11.50;;;;;;;;;;5110834;28;20068;-66
2023/10/04 05:25:47;;;;;;;11.40;10.90;;;;;;;;;;5110807;27;20032;-66
2023/10/04 05:28:13;;;;;;;12.18;11.68;;;;;;;;;;5098969;28;20028;-68
2023/10/04 05:30:39;;;;;;;11.68;11.18;;;;;;;;;;5108752;27;20015;-67
2023/10/04 05:33:06;;;;;;;12.00;11.50;;;;;;;;;;5105277;28;20047;-67
2023/10/04 05:35:32;;;;;;;12.40;11.82;;;;;;;;;;5086166;28;20047;-66
2023/10/04 05:37:57;;;;;;;12.50;11.90;;;;;;;;;;5098480;28;20507;-68
2023/10/04 05:40:25;;;;;;;12.10;11.60;;;;;;;;;;5102246;28;20085;-62
2023/10/04 05:42:53;;;;;;;12.20;11.70;;;;;;;;;;5105800;27;20481;-63
2023/10/04 05:45:19;;;;;;;12.70;12.10;;;;;;;;;;5085782;28;20047;-63
2023/10/04 05:47:45;;;;;;;12.13;11.63;;;;;;;;;;5101983;28;20027;-62
2023/10/04 05:50:13;;;;;;;12.20;11.70;;;;;;;;;;5105654;28;20034;-63
2023/10/04 05:52:39;;;;;;;11.80;11.30;;;;;;;;;;5105883;28;20024;-62
2023/10/04 05:55:08;;;;;;;11.95;11.45;;;;;;;;;;5107541;27;20035;-62
2023/10/04 05:57:33;;;;;;;11.95;11.45;;;;;;;;;;5114161;28;20113;-63
2023/10/04 05:59:58;;;;;;;11.90;11.40;;;;;;;;;;5110555;28;20090;-62
2023/10/04 06:02:24;;;;;;;11.93;11.43;;;;;;;;;;5105313;28;20130;-63
2023/10/04 06:04:50;;;;;;;11.77;11.27;;;;;;;;;;5083485;28;20512;-63
2023/10/04 06:07:15;;;;;;;12.13;11.63;;;;;;;;;;5096640;28;20020;-63
2023/10/04 06:09:42;;;;;;;12.00;11.50;;;;;;;;;;5100459;28;20076;-64
2023/10/04 06:12:11;;;;;;;11.98;11.48;;;;;;;;;;5100942;28;20712;-63
2023/10/04 06:14:36;;;;;;;11.95;11.45;;;;;;;;;;5099614;28;20016;-64
2023/10/04 06:17:02;;;;;;;12.07;11.57;;;;;;;;;;5102979;28;20031;-63
2023/10/04 06:19:28;;;;;;;12.10;11.60;;;;;;;;;;5098719;28;20027;-63
2023/10/04 06:21:53;;;;;;;11.98;11.48;;;;;;;;;;5101179;28;20463;-64
2023/10/04 06:24:19;;;;;;;11.88;11.38;;;;;;;;;;5099220;28;20382;-64
2023/10/04 06:26:44;;;;;;;11.60;11.10;;;;;;;;;;5100081;28;20027;-64
2023/10/04 06:29:09;;;;;;;11.90;11.40;;;;;;;;;;5099361;28;20034;-64
2023/10/04 06:31:35;;;;;;;12.13;11.63;;;;;;;;;;5102721;28;20043;-63
2023/10/04 06:34:02;;;;;;;11.87;11.37;;;;;;;;;;5108587;28;20386;-63
2023/10/04 06:36:29;;;;;;;12.10;11.60;;;;;;;;;;5098594;28;20851;-64
2023/10/04 06:38:55;;;;;;;11.75;11.25;;;;;;;;;;5105431;28;20023;-64
2023/10/04 06:41:24;;;;;;;11.88;11.38;;;;;;;;;;5106034;28;20099;-63
2023/10/04 06:43:49;;;;;;;11.98;11.48;;;;;;;;;;5110080;28;20102;-63
2023/10/04 06:46:14;;;;;;;11.98;11.48;;;;;;;;;;5105140;28;20127;-63
2023/10/04 06:48:41;;;;;;;12.05;11.55;;;;;;;;;;5100002;28;20023;-64
2023/10/04 06:51:06;;;;;;;12.60;12.00;;;;;;;;;;5087874;28;20039;-66
2023/10/04 06:53:31;;;;;;;12.13;11.63;;;;;;;;;;5099695;28;20024;-65
2023/10/04 06:55:57;;;;;;;11.90;11.40;;;;;;;;;;5103082;28;20023;-66
2023/10/04 06:58:22;;;;;;;12.20;11.70;;;;;;;;;;5105733;28;20058;-68
2023/10/04 07:00:47;;;;;;;12.10;11.60;;;;;;;;;;5104363;28;20072;-65
2023/10/04 07:03:14;;;;;;;12.15;11.65;;;;;;;;;;5102004;28;20055;-67
2023/10/04 07:05:42;;;;;;;12.40;11.90;;;;;;;;;;5105172;28;20047;-69
2023/10/04 07:08:16;;;;;;;12.10;11.60;;;;;;;;;;5101004;28;20106;-68
2023/10/04 07:10:41;;;;;;;12.10;11.60;;;;;;;;;;5107936;27;20031;-65
2023/10/04 07:13:07;;;;;;;12.10;11.60;;;;;;;;;;5107829;28;20051;-65
2023/10/04 07:15:35;;;;;;;12.10;11.60;;;;;;;;;;5103190;27;20028;-66
2023/10/04 07:18:01;;;;;;;12.18;11.68;;;;;;;;;;5110117;27;20024;-66
2023/10/04 07:20:26;;;;;;;12.30;11.80;;;;;;;;;;5105504;28;20020;-63
2023/10/04 07:22:58;;;;;;;12.30;11.80;;;;;;;;;;5106609;27;20546;-66
2023/10/04 07:25:27;;;;;;;12.23;11.73;;;;;;;;;;5100865;28;20271;-67
2023/10/04 07:27:54;;;;;;;12.05;11.55;;;;;;;;;;5105188;27;20189;-67
2023/10/04 07:30:19;;;;;;;12.30;11.80;;;;;;;;;;5105793;27;20024;-64
2023/10/04 07:32:45;;;;;;;12.45;11.90;;;;;;;;;;5104524;27;20030;-65
2023/10/04 07:35:16;;;;;;;12.23;11.73;;;;;;;;;;5106049;27;20051;-65
2023/10/04 07:37:42;;;;;;;12.18;11.68;;;;;;;;;;5102227;27;20027;-66
2023/10/04 07:40:12;;;;;;;12.07;11.57;;;;;;;;;;5109615;27;20098;-68
2023/10/04 07:42:38;;;;;;;12.30;11.80;;;;;;;;;;5103823;27;20027;-68
2023/10/04 07:45:04;;;;;;;12.18;11.68;;;;;;;;;;5108684;27;20023;-66
2023/10/04 07:47:29;;;;;;;12.25;11.75;;;;;;;;;;5106635;27;20051;-66
2023/10/04 07:49:55;;;;;;;12.30;11.80;;;;;;;;;;5106734;27;20471;-66
2023/10/04 07:52:20;;;;;;;12.13;11.63;;;;;;;;;;5106838;27;21065;-68
2023/10/04 07:54:45;;;;;;;12.13;11.63;;;;;;;;;;5107764;27;20035;-69
2023/10/04 07:57:11;;;;;;;12.02;11.52;;;;;;;;;;5104089;27;20039;-66
2023/10/04 07:59:37;;;;;;;12.00;11.50;;;;;;;;;;5110619;27;20035;-68
2023/10/04 08:02:03;;;;;;;11.90;11.40;;;;;;;;;;5104198;27;20027;-68
2023/10/04 08:04:29;;;;;;;12.30;11.80;;;;;;;;;;5106200;27;20050;-69
2023/10/04 08:06:58;;;;;;;12.25;11.75;;;;;;;;;;5112535;27;20585;-65
2023/10/04 08:09:23;;;;;;;12.10;11.60;;;;;;;;;;5105887;27;20046;-66
2023/10/04 08:11:50;;;;;;;12.17;11.67;;;;;;;;;;5104082;27;20491;-66
2023/10/04 08:14:16;;;;;;;12.07;11.57;;;;;;;;;;5110348;27;20256;-66
2023/10/04 08:16:41;;;;;;;11.82;11.32;;;;;;;;;;5092047;28;20749;-66
2023/10/04 08:19:06;;;;;;;11.77;11.27;;;;;;;;;;5106890;27;20024;-65
2023/10/04 08:21:33;;;;;;;12.27;11.77;;;;;;;;;;5102067;27;20024;-66
2023/10/04 08:23:59;;;;;;;12.23;11.73;;;;;;;;;;5108697;27;20647;-69
2023/10/04 08:26:25;;;;;;;11.90;11.40;;;;;;;;;;5104722;28;20055;-69
2023/10/04 08:28:50;;;;;;;12.07;11.57;;;;;;;;;;5101119;27;20121;-67
2023/10/04 08:31:18;;;;;;;12.02;11.52;;;;;;;;;;5102170;27;20034;-67
2023/10/04 08:33:45;;;;;;;12.20;11.70;;;;;;;;;;5102071;27;20030;-65
2023/10/04 08:36:17;;;;;;;11.82;11.32;;;;;;;;;;5104474;28;20024;-69
2023/10/04 08:38:42;;;;;;;11.93;11.43;;;;;;;;;;5101145;28;20026;-66
2023/10/04 08:41:08;;;;;;;12.10;11.60;;;;;;;;;;5109411;27;20085;-67
2023/10/04 08:43:34;;;;;;;12.10;11.60;;;;;;;;;;5112976;27;20046;-70
2023/10/04 08:45:59;;;;;;;12.10;11.60;;;;;;;;;;5106290;28;20489;-68
2023/10/04 08:48:26;;;;;;;11.95;11.45;;;;;;;;;;5095186;27;20028;-68
2023/10/04 08:50:58;;;;;;;12.20;11.70;;;;;;;;;;5104225;27;20428;-67
2023/10/04 08:53:44;;;;;;;12.70;12.10;;;;;;;;;;5107568;27;20100;-67
2023/10/04 08:56:11;;;;;;;12.25;11.75;;;;;;;;;;5107435;27;20077;-68
2023/10/04 08:58:38;;;;;;;12.90;12.30;;;;;;;;;;5105812;27;20022;-63
2023/10/04 09:01:05;;;;;;;12.10;11.60;;;;;;;;;;5097660;27;20359;-67
2023/10/04 09:03:30;;;;;;;12.15;11.65;;;;;;;;;;5100012;27;20024;-68
2023/10/04 09:05:56;;;;;;;12.77;12.18;;;;;;;;;;5105396;27;20047;-68
2023/10/04 09:08:24;;;;;;;12.02;11.52;;;;;;;;;;5112970;27;20027;-69
2023/10/04 09:10:53;;;;;;;12.10;11.60;;;;;;;;;;5108575;27;20435;-65
2023/10/04 09:13:18;;;;;;;12.18;11.68;;;;;;;;;;5097651;27;20080;-68
2023/10/04 09:15:43;;;;;;;12.50;11.90;;;;;;;;;;5106444;27;20399;-70
2023/10/04 09:18:26;;;;;;;12.25;11.75;;;;;;;;;;5101795;28;20024;-66
2023/10/04 09:20:51;;;;;;;12.00;11.50;;;;;;;;;;5103354;27;20488;-70
2023/10/04 09:23:22;;;;;;;11.75;11.25;;;;;;;;;;5086140;28;20044;-69
2023/10/04 09:25:47;;;;;;;12.00;11.50;;;;;;;;;;5103324;27;20020;-71
2023/10/04 09:28:12;;;;;;;12.25;11.73;;;;;;;;;;5106527;27;20032;-69
2023/10/04 09:30:38;;;;;;;11.73;11.23;;;;;;;;;;5106256;27;20027;-70
2023/10/04 09:33:07;;;;;;;12.15;11.65;;;;;;;;;;5102834;28;20032;-68
2023/10/04 09:35:45;;;;;;;12.35;11.82;;;;;;;;;;5099632;28;20055;-68
2023/10/04 09:38:15;;;;;;;12.13;11.63;;;;;;;;;;5104111;28;20498;-68
2023/10/04 09:40:48;;;;;;;12.20;11.70;;;;;;;;;;5104964;27;20456;-67
2023/10/04 09:43:14;;;;;;;12.02;11.52;;;;;;;;;;5085700;28;20023;-69
2023/10/04 09:45:54;;;;;;;12.90;12.30;;;;;;;;;;5105654;28;20035;-69
2023/10/04 09:48:19;;;;;;;12.50;11.90;;;;;;;;;;5101420;27;20076;-68
2023/10/04 09:50:45;;;;;;;12.50;11.93;;;;;;;;;;5100555;27;20019;-68
2023/10/04 09:53:11;;;;;;;12.10;11.60;;;;;;;;;;5087511;28;20032;-69
2023/10/04 09:55:37;;;;;;;12.32;11.80;;;;;;;;;;5077807;28;20081;-71
2023/10/04 09:58:03;;;;;;;12.07;11.57;;;;;;;;;;5101843;28;20047;-76
2023/10/04 10:00:30;;;;;;;12.75;12.15;;;;;;;;;;5093850;28;20081;-70
2023/10/04 10:02:57;;;;;;;12.20;11.70;;;;;;;;;;5098432;28;20031;-63
2023/10/04 10:05:32;;;;;;;12.60;12.00;;;;;;;;;;5099808;27;20043;-64
2023/10/04 10:08:04;;;;;;;12.65;12.05;;;;;;;;;;5099692;28;20458;-64
2023/10/04 10:10:33;;;;;;;12.13;11.63;;;;;;;;;;5095841;28;20066;-64
2023/10/04 10:12:59;;;;;;;12.70;12.10;;;;;;;;;;5096841;28;20483;-64
2023/10/04 10:15:24;;;;;;;12.70;12.10;;;;;;;;;;5083264;28;20043;-66
2023/10/04 10:17:51;;;;;;;11.98;11.48;;;;;;;;;;5100193;28;20379;-66
2023/10/04 10:20:19;;;;;;;12.45;11.85;;;;;;;;;;5097799;28;20016;-67
2023/10/04 10:22:58;;;;;;;12.40;11.80;;;;;;;;;;5097323;28;20027;-63
2023/10/04 10:25:25;;;;;;;12.82;12.23;;;;;;;;;;5101286;28;20177;-67
2023/10/04 10:27:51;;;;;;;12.10;11.60;;;;;;;;;;5096475;28;20103;-66
2023/10/04 10:30:18;;;;;;;12.20;11.70;;;;;;;;;;5098238;28;20130;-67
2023/10/04 10:32:54;;;;;;;12.65;12.05;;;;;;;;;;5084665;28;20482;-67
2023/10/04 10:35:39;;;;;;;12.35;11.80;;;;;;;;;;5101375;28;20031;-67
2023/10/04 10:38:23;;;;;;;12.60;12.00;;;;;;;;;;5099447;28;20062;-67
2023/10/04 10:40:48;;;;;;;12.40;11.80;;;;;;;;;;5104838;28;20068;-65
2023/10/04 10:43:14;;;;;;;12.38;11.82;;;;;;;;;;5095698;28;20063;-65
2023/10/04 10:45:41;;;;;;;12.00;11.50;;;;;;;;;;5098816;27;20031;-68
2023/10/04 10:48:08;;;;;;;11.93;11.43;;;;;;;;;;5105229;27;20482;-65
2023/10/04 10:50:37;;;;;;;11.90;11.40;;;;;;;;;;5107612;27;20028;-64
2023/10/04 10:53:09;;;;;;;11.98;11.48;;;;;;;;;;5102447;27;20028;-66
2023/10/04 10:55:34;;;;;;;11.52;11.02;;;;;;;;;;5103677;27;20023;-65
2023/10/04 10:57:59;;;;;;;12.13;11.63;;;;;;;;;;5108121;27;20027;-64
2023/10/04 11:00:31;;;;;;;12.45;11.85;;;;;;;;;;5104197;28;20019;-68
2023/10/04 11:02:57;;;;;;;12.50;11.90;;;;;;;;;;5087796;28;20051;-67
2023/10/04 11:05:22;;;;;;;12.25;11.75;;;;;;;;;;5110528;27;20078;-68
2023/10/04 11:07:48;;;;;;;12.55;11.95;;;;;;;;;;5105649;27;20028;-68
2023/10/04 11:10:17;;;;;;;11.95;11.45;;;;;;;;;;5105881;27;20093;-66
2023/10/04 11:12:46;;;;;;;12.40;11.80;;;;;;;;;;5102090;27;20103;-65
2023/10/04 11:15:12;;;;;;;13.70;13.10;;;;;;;;;;5105063;27;20037;-68
2023/10/04 11:17:38;;;;;;;12.68;12.07;;;;;;;;;;5102632;28;20103;-68
2023/10/04 11:20:06;;;;;;;12.07;11.57;;;;;;;;;;5109325;27;20135;-68
2023/10/04 11:22:31;;;;;;;12.05;11.55;;;;;;;;;;5079863;28;20020;-65
2023/10/04 11:24:56;;;;;;;12.02;11.52;;;;;;;;;;5085851;28;20404;-65
2023/10/04 11:27:22;;;;;;;12.05;11.55;;;;;;;;;;5105883;27;20031;-65
2023/10/04 11:29:49;;;;;;;12.65;12.05;;;;;;;;;;5104507;27;20098;-65
2023/10/04 11:32:14;;;;;;;12.23;11.73;;;;;;;;;;5086096;28;20084;-67
2023/10/04 11:34:42;;;;;;;12.02;11.52;;;;;;;;;;5111092;27;20509;-64
2023/10/04 11:37:08;;;;;;;12.10;11.60;;;;;;;;;;5108204;27;20049;-68
2023/10/04 11:39:33;;;;;;;11.70;11.20;;;;;;;;;;5088866;27;20015;-67
2023/10/04 11:42:00;;;;;;;11.90;11.40;;;;;;;;;;5107169;27;20077;-66
2023/10/04 11:44:25;;;;;;;12.20;11.60;;;;;;;;;;5103508;28;20028;-68
2023/10/04 11:46:58;;;;;;;12.25;11.73;;;;;;;;;;5104532;27;20023;-69
2023/10/04 11:49:24;;;;;;;11.93;11.43;;;;;;;;;;5097178;27;20044;-65
2023/10/04 11:51:50;;;;;;;12.10;11.60;;;;;;;;;;5099379;27;20015;-68
2023/10/04 11:54:18;;;;;;;11.70;11.20;;;;;;;;;;5103141;27;20077;-67
2023/10/04 11:56:44;;;;;;;11.75;11.25;;;;;;;;;;5108396;28;20070;-65
2023/10/04 11:59:09;;;;;;;11.93;11.43;;;;;;;;;;5103183;28;20055;-66
2023/10/04 12:01:46;;;;;;;12.60;12.00;;;;;;;;;;5085804;28;20022;-68
2023/10/04 12:04:16;;;;;;;12.32;11.77;;;;;;;;;;5103538;27;20028;-69
2023/10/04 12:06:42;;;;;;;12.27;11.77;;;;;;;;;;5106829;27;20048;-67
2023/10/04 12:09:08;;;;;;;12.52;11.93;;;;;;;;;;5100975;27;20383;-67
2023/10/04 12:11:37;;;;;;;12.10;11.60;;;;;;;;;;5100686;27;20074;-67
2023/10/04 12:14:04;;;;;;;12.13;11.63;;;;;;;;;;5101554;27;20027;-64
2023/10/04 12:16:32;;;;;;;11.93;11.43;;;;;;;;;;5107161;27;20075;-66
2023/10/04 12:18:58;;;;;;;12.90;12.30;;;;;;;;;;5108277;27;20020;-66
2023/10/04 12:21:23;;;;;;;13.20;12.60;;;;;;;;;;5107057;27;20431;-65
2023/10/04 12:23:50;;;;;;;12.40;11.80;;;;;;;;;;5105283;27;20107;-65
2023/10/04 12:26:16;;;;;;;12.70;12.10;;;;;;;;;;5066402;28;20487;-67
2023/10/04 12:28:42;;;;;;;12.02;11.52;;;;;;;;;;5103027;27;20118;-69
2023/10/04 12:31:07;;;;;;;12.60;12.00;;;;;;;;;;5106832;27;20554;-67
2023/10/04 12:33:38;;;;;;;11.90;11.40;;;;;;;;;;5102349;27;20038;-67
2023/10/04 12:36:04;;;;;;;12.00;11.50;;;;;;;;;;5105161;27;20421;-67
2023/10/04 12:38:30;;;;;;;12.43;11.82;;;;;;;;;;5082149;28;20028;-65
2023/10/04 12:40:55;;;;;;;12.30;11.70;;;;;;;;;;5097628;27;20027;-68
2023/10/04 12:43:20;;;;;;;12.55;11.95;;;;;;;;;;5100381;28;20024;-66
2023/10/04 12:45:46;;;;;;;12.15;11.60;;;;;;;;;;5079974;28;20051;-67
2023/10/04 12:48:16;;;;;;;12.25;11.68;;;;;;;;;;5105411;27;20055;-66
2023/10/04 12:50:45;;;;;;;11.98;11.48;;;;;;;;;;5098360;28;20099;-67
2023/10/04 12:53:11;;;;;;;12.25;11.68;;;;;;;;;;5107552;27;20398;-67
2023/10/04 12:55:36;;;;;;;11.65;11.15;;;;;;;;;;5103090;27;20081;-67
2023/10/04 12:58:04;;;;;;;12.10;11.60;;;;;;;;;;5100507;27;20043;-67
2023/10/04 13:00:30;;;;;;;12.18;11.63;;;;;;;;;;5106133;27;20019;-69
2023/10/04 13:02:56;;;;;;;12.95;12.35;;;;;;;;;;5096998;27;20024;-66
2023/10/04 13:05:22;;;;;;;12.52;11.93;;;;;;;;;;5103875;27;20519;-70
2023/10/04 13:07:48;;;;;;;12.63;12.02;;;;;;;;;;5097094;27;20419;-67
2023/10/04 13:10:15;;;;;;;11.80;11.30;;;;;;;;;;5086008;28;20027;-67
2023/10/04 13:12:41;;;;;;;13.02;12.43;;;;;;;;;;5095995;27;20024;-65
2023/10/04 13:15:08;;;;;;;11.77;11.27;;;;;;;;;;5080947;28;20070;-68
2023/10/04 13:17:33;;;;;;;12.00;11.50;;;;;;;;;;5096182;27;20043;-65
2023/10/04 13:19:59;;;;;;;11.80;11.30;;;;;;;;;;5100780;27;20019;-64
2023/10/04 13:22:25;;;;;;;12.48;11.88;;;;;;;;;;5089019;27;20058;-67
2023/10/04 13:24:51;;;;;;;12.02;11.52;;;;;;;;;;5101021;28;20494;-66
2023/10/04 13:27:16;;;;;;;13.05;12.45;;;;;;;;;;5081824;28;20034;-65
2023/10/04 13:29:42;;;;;;;11.70;11.20;;;;;;;;;;5095133;27;20027;-65
2023/10/04 13:32:08;;;;;;;11.75;11.25;;;;;;;;;;5104399;27;20126;-67
2023/10/04 13:34:35;;;;;;;11.65;11.15;;;;;;;;;;5101207;28;20540;-66
2023/10/04 13:37:00;;;;;;;11.48;10.98;;;;;;;;;;5102620;27;20499;-68
2023/10/04 13:39:31;;;;;;;12.48;11.88;;;;;;;;;;5065107;27;20038;-66
2023/10/04 13:41:56;;;;;;;12.80;12.20;;;;;;;;;;5099190;28;20016;-64
2023/10/04 13:44:22;;;;;;;11.98;11.48;;;;;;;;;;5104228;27;20043;-65
2023/10/04 13:46:48;;;;;;;12.65;12.05;;;;;;;;;;5098630;28;20029;-65
2023/10/04 13:49:14;;;;;;;12.13;11.63;;;;;;;;;;5097139;27;20024;-66
2023/10/04 13:51:41;;;;;;;11.88;11.38;;;;;;;;;;5101285;27;20621;-67
2023/10/04 13:54:08;;;;;;;11.90;11.40;;;;;;;;;;5098975;27;20074;-68
2023/10/04 13:56:34;;;;;;;11.85;11.35;;;;;;;;;;5101372;27;20023;-66
2023/10/04 13:58:59;;;;;;;11.52;11.02;;;;;;;;;;5100955;27;20020;-66
2023/10/04 14:01:25;;;;;;;12.55;11.95;;;;;;;;;;5102771;27;20046;-70
2023/10/04 14:03:51;;;;;;;12.55;11.95;;;;;;;;;;5107135;27;20469;-69
2023/10/04 14:06:18;;;;;;;12.20;11.65;;;;;;;;;;5107023;27;20063;-69
2023/10/04 14:08:43;;;;;;;13.10;12.50;;;;;;;;;;5078722;28;20020;-68
2023/10/04 14:11:09;;;;;;;12.43;11.82;;;;;;;;;;5101192;28;20543;-64
2023/10/04 14:13:34;;;;;;;11.90;11.40;;;;;;;;;;5089617;28;20028;-62
2023/10/04 14:16:01;;;;;;;12.35;11.75;;;;;;;;;;5103756;28;20149;-67